Terminal Aerodrome Forecast
Issued by NWS Upton, NY

Home | Current Version | Previous Version | Text Only | Print | Product List | Glossary On
Versions: 1 2 3 4 5 6 7 8 9 10 11 12 13 14 15 16 17 18 19 20 21 22 23 24 25 26 27
000
FTUS41 KOKX 231400 AAA
TAFEWR
TAF AMD
KEWR 231431Z 2315/2418 22008KT P6SM SCT080 BKN100
     FM232200 19007KT P6SM SCT120 BKN200
     FM240300 15008KT P6SM BKN008
     FM240500 13010KT 2SM RA BR OVC005 WS020/16045KT
     FM240800 15015G25KT 2SM RA BR OVC004 WS020/18055KT
     FM241100 17014G22KT 3SM SHRA BR OVC008 WS020/20045KT
     FM241400 20015G23KT 6SM BR SCT009 BKN020=

USA.gov is the U.S. government's official web portal to all federal, state and local government web resources and services.